Map

Track Data

SID SEASON NUMBER BASIN SUBBASIN NAME ISO_TIME NATURE LAT LON WMO_WIND WMO_PRES WMO_AGENCY TRACK_TYPE DIST2LAND LANDFALL IFLAG USA_AGENCY USA_ATCF_ID USA_LAT USA_LON USA_RECORD USA_STATUS USA_WIND USA_PRES USA_SSHS USA_R34_NE USA_R34_SE USA_R34_SW USA_R34_NW USA_R50_NE USA_R50_SE USA_R50_SW USA_R50_NW USA_R64_NE USA_R64_SE USA_R64_SW USA_R64_NW USA_POCI USA_ROCI USA_RMW USA_EYE TOKYO_LAT TOKYO_LON TOKYO_GRADE TOKYO_WIND TOKYO_PRES TOKYO_R50_DIR TOKYO_R50_LONG TOKYO_R50_SHORT TOKYO_R30_DIR TOKYO_R30_LONG TOKYO_R30_SHORT TOKYO_LAND CMA_LAT CMA_LON CMA_CAT CMA_WIND CMA_PRES HKO_LAT HKO_LON HKO_CAT HKO_WIND HKO_PRES NEWDELHI_LAT NEWDELHI_LON NEWDELHI_GRADE NEWDELHI_WIND NEWDELHI_PRES NEWDELHI_CI NEWDELHI_DP NEWDELHI_POCI REUNION_LAT REUNION_LON REUNION_TYPE REUNION_WIND REUNION_PRES REUNION_TNUM REUNION_CI REUNION_RMW REUNION_R34_NE REUNION_R34_SE REUNION_R34_SW REUNION_R34_NW REUNION_R50_NE REUNION_R50_SE REUNION_R50_SW REUNION_R50_NW REUNION_R64_NE REUNION_R64_SE REUNION_R64_SW REUNION_R64_NW BOM_LAT BOM_LON BOM_TYPE BOM_WIND BOM_PRES BOM_TNUM BOM_CI BOM_RMW BOM_R34_NE BOM_R34_SE BOM_R34_SW BOM_R34_NW BOM_R50_NE BOM_R50_SE BOM_R50_SW BOM_R50_NW BOM_R64_NE BOM_R64_SE BOM_R64_SW BOM_R64_NW BOM_ROCI BOM_POCI BOM_EYE BOM_POS_METHOD BOM_PRES_METHOD NADI_LAT NADI_LON NADI_CAT NADI_WIND NADI_PRES WELLINGTON_LAT WELLINGTON_LON WELLINGTON_WIND WELLINGTON_PRES DS824_LAT DS824_LON DS824_STAGE DS824_WIND DS824_PRES TD9636_LAT TD9636_LON TD9636_STAGE TD9636_WIND TD9636_PRES TD9635_LAT TD9635_LON TD9635_WIND TD9635_PRES TD9635_ROCI NEUMANN_LAT NEUMANN_LON NEUMANN_CLASS NEUMANN_WIND NEUMANN_PRES MLC_LAT MLC_LON MLC_CLASS MLC_WIND MLC_PRES USA_GUST BOM_GUST BOM_GUST_PER REUNION_GUST REUNION_GUST_PER USA_SEAHGT USA_SEARAD_NE USA_SEARAD_SE USA_SEARAD_SW USA_SEARAD_NW STORM_SPEED STORM_DIR
1973354S10098 1974 139 SI WA DALIDA:DEIDRE:DELID 1973-12-20 00:00:00 TS -9.99968 98.0000 main 819 819 ______P__O__O_ -1 -9.99903 97.9999 -10.0000 98.0000 TC 25 1003 -10.0000 98.0000 TC 25 1003 4 0
1973354S10098 1974 139 SI WA DALIDA:DEIDRE:DELID 1973-12-20 00:01:00 TS -10.0009 97.9999 25 1003 bom main 819 819 ______O__O__O_ -1 -10.0000 98.0000 20 25 1003 1.50000 -10.0000 98.0000 TC 25 1003 -10.0000 98.0000 TC 25 1003 5 0
1973354S10098 1974 139 SI WA DALIDA:DEIDRE:DELID 1973-12-20 03:00:00 TS -10.2250 97.9733 25 1002 bom main 836 836 ______O__P__P_ -1 -10.2000 98.0000 20 25 1002 2.00000 -10.1638 97.9715 TC 27 1002 -10.1638 97.9715 TC 25 1002 4 187
1973354S10098 1974 139 SI WA DALIDA:DEIDRE:DELID 1973-12-20 06:00:00 TS -10.4200 97.9400 25 1001 bom main 860 860 O_____O__OO_O_ jtwc_sh SH111974 -10.1000 98.1000 -1 -10.5000 97.9000 20 25 1001 2.00000 -10.5000 97.9000 TC 30 1001 -10.1000 98.1000 7 -10.5000 97.9000 TC 25 1001 4 198
1973354S10098 1974 139 SI WA DALIDA:DEIDRE:DELID 1973-12-20 09:00:00 TS -10.5995 97.8539 25 1000 bom main 878 878 P_____O__PP_P_ SH111974 -10.1900 97.9500 -1 -10.8000 97.8000 20 25 1000 2.00000 -10.8001 97.8075 TC 30 1001 -10.2157 97.9548 7 -10.8001 97.8075 TC 25 1001 4 210
1973354S10098 1974 139 SI WA DALIDA:DEIDRE:DELID 1973-12-20 12:00:00 TS -10.7621 97.7440 25 1001 bom main 909 909 O_____O__OP_O_ jtwc_sh SH111974 -10.3000 97.8000 -1 -11.1000 97.7000 20 25 1001 2.00000 -11.1000 97.7000 TC 30 1001 -10.3350 97.8076 7 -11.1000 97.7000 TC 25 1001 4 215
1973354S10098 1974 139 SI WA DALIDA:DEIDRE:DELID 1973-12-20 15:00:00 TS -10.9178 97.6261 25 1002 bom main 924 924 P_____O__PP_P_ SH111974 -10.4425 97.6500 -1 -11.4000 97.6000 20 25 1002 2.00000 -11.3800 97.6000 TC 27 1001 -10.4619 97.6566 7 -11.3800 97.6000 TC 25 1001 4 215
1973354S10098 1974 139 SI WA DALIDA:DEIDRE:DELID 1973-12-20 18:00:00 TS -11.1000 97.5000 25 1002 bom main 949 949 O_____O__OO_O_ jtwc_sh SH111974 -10.6000 97.5000 -1 -11.6000 97.5000 20 25 1002 2.00000 -11.6000 97.5000 TC 25 1002 -10.6000 97.5000 7 -11.6000 97.5000 TC 25 1002 4 218
1973354S10098 1974 139 SI WA DALIDA:DEIDRE:DELID 1973-12-20 21:00:00 TS -11.2329 97.3777 25 1001 bom main 964 964 P_____O__PP_P_ SH111974 -10.7981 97.3020 -1 -11.7000 97.4000 20 25 1001 2.00000 -11.7482 97.3680 TC 27 1001 -10.7525 97.3362 7 -11.7482 97.3680 TC 25 1001 4 225
1973354S10098 1974 139 SI WA DALIDA:DEIDRE:DELID 1973-12-21 00:00:00 TS -11.3533 97.2443 main 995 995 O_____P__OP_O_ jtwc_sh SH111974 -10.9000 97.2000 -1 -11.7997 97.3006 20 25 1001 -11.8000 97.3000 TC 30 1001 -10.9200 97.1649 7 -11.8000 97.3000 TC 25 1001 4 227
1973354S10098 1974 139 SI WA DALIDA:DEIDRE:DELID 1973-12-21 00:01:00 TS -11.3539 97.2434 25 1001 bom main 995 995 O_____O__OP_O_ jtwc_sh SH111974 -10.9000 97.2000 -1 -11.8000 97.3000 20 25 1001 2.00000 -11.8000 97.3000 TC 30 1001 -10.9209 97.1639 7 -11.8000 97.3000 TC 25 1001 4 234
1973354S10098 1974 139 SI WA DALIDA:DEIDRE:DELID 1973-12-21 03:00:00 TS -11.4646 97.0860 25 1001 bom main 1011 1011 P_____O__PP_P_ SH111974 -11.0300 97.0648 -1 -11.8000 97.2000 20 25 1001 2.00000 -11.8338 97.1985 TC 32 999 -11.1025 96.9862 7 -11.8338 97.1985 TC 29 999 4 234
1973354S10098 1974 139 SI WA DALIDA:DEIDRE:DELID 1973-12-21 06:00:00 TS -11.6000 96.9000 30 998 bom main 1034 1034 O_____O__OO_O_ jtwc_sh SH111974 -11.3000 96.8000 -1 -11.9000 97.0000 20 30 998 2.50000 -11.9000 97.0000 TC 35 998 -11.3000 96.8000 1 -11.9000 97.0000 TC 35 998 4 231
1973354S10098 1974 139 SI WA DALIDA:DEIDRE:DELID 1973-12-21 09:00:00 TS -11.7403 96.7339 30 995 bom main 1056 1056 P_____O__PP_P_ SH111974 -11.5501 96.5999 -1 -11.9000 96.9000 20 30 995 2.50000 -11.9575 96.8499 TC 35 997 -11.5269 96.6032 1 -11.9575 96.8499 TC 35 997 5 229
1973354S10098 1974 139 SI WA DALIDA:DEIDRE:DELID 1973-12-21 12:00:00 TS -11.8942 96.5500 30 996 bom main 1080 1080 O_____O__OP_O_ jtwc_sh SH111974 -11.8000 96.4000 -1 -12.0000 96.7000 20 30 996 2.50000 -12.0000 96.7000 TC 35 996 -11.7650 96.4001 1 -12.0000 96.7000 TC 35 996 5 233
1973354S10098 1974 139 SI WA DALIDA:DEIDRE:DELID 1973-12-21 15:00:00 TS -12.0118 96.3637 30 996 bom main 1103 1103 P_____O__PP_P_ SH111974 -12.0225 96.1925 -1 -12.0000 96.5000 20 30 996 2.50000 -12.0150 96.5500 TC 35 996 -11.9956 96.1970 1 -12.0150 96.5500 TC 35 996 4 239
1973354S10098 1974 139 SI WA DALIDA:DEIDRE:DELID 1973-12-21 18:00:00 TS -12.1000 96.2000 30 996 bom main 1126 1126 O_____O__OO_O_ jtwc_sh SH111974 -12.2000 96.0000 -1 -12.0000 96.4000 20 30 996 2.50000 -12.0000 96.4000 TC 35 996 -12.2000 96.0000 1 -12.0000 96.4000 TC 35 996 3 248
1973354S10098 1974 139 SI WA DALIDA:DEIDRE:DELID 1973-12-21 21:00:00 TS -12.1306 96.0595 35 994 bom main 1133 1133 P_____O__PP_P_ SH111974 -12.3428 95.7966 -1 -11.9000 96.3000 30 35 994 3.00000 -11.9394 96.2019 TC 40 994 -12.3536 95.8419 1 -11.9394 96.2019 TC 40 994 3 258
1973354S10098 1974 139 SI WA DALIDA:DEIDRE:DELID 1973-12-22 00:00:00 TS -12.1633 95.8981 main 1156 1156 O_____P__OP_O_ jtwc_sh SH111974 -12.4000 95.7000 -1 -11.9002 96.1012 30 39 992 -11.9000 96.1000 TC 45 992 -12.4797 95.6872 1 -11.9000 96.1000 TC 45 992 3 258
1973354S10098 1974 139 SI WA DALIDA:DEIDRE:DELID 1973-12-22 00:01:00 TS -12.1635 95.8971 40 992 bom main 1156 1156 O_____O__OP_O_ jtwc_sh SH111974 -12.4000 95.7000 -1 -11.9000 96.1000 30 40 992 3.00000 -11.9000 96.1000 TC 45 992 -12.4803 95.6863 1 -11.9000 96.1000 TC 45 992 4 259
1973354S10098 1974 139 SI WA DALIDA:DEIDRE:DELID 1973-12-22 03:00:00 TS -12.1985 95.7198 40 991 bom main 1171 1171 P_____O__PP_P_ SH111974 -12.5068 95.5754 -1 -11.8000 95.9000 30 40 991 3.00000 -11.8662 95.9807 TC 47 990 -12.5910 95.5138 1 -11.8662 95.9807 TC 47 990 4 257
1973354S10098 1974 139 SI WA DALIDA:DEIDRE:DELID 1973-12-22 06:00:00 TS -12.2500 95.5000 45 988 bom main 1184 1184 O_____O__OO_O_ jtwc_sh SH111974 -12.7000 95.3000 -1 -11.8000 95.7000 30 45 988 3.00000 -11.8000 95.7000 TC 50 988 -12.7000 95.3000 1 -11.8000 95.7000 TC 50 988 5 262
1973354S10098 1974 139 SI WA DALIDA:DEIDRE:DELID 1973-12-22 09:00:00 TS -12.2678 95.2127 50 985 bom main 1214 1214 P_____O__PP_P_ SH111974 -12.8001 95.0224 -1 -11.7000 95.4000 30 50 985 3.50000 -11.7349 95.4024 TC 52 986 -12.8372 95.0264 1 -11.7349 95.4024 TC 52 986 6 264
1973354S10098 1974 139 SI WA DALIDA:DEIDRE:DELID 1973-12-22 12:00:00 TS -12.3121 94.8517 50 985 bom main 1236 1236 O_____O__OP_O_ jtwc_sh SH111974 -12.9000 94.7000 -1 -11.7000 95.0000 30 50 985 3.50000 -11.7000 95.0000 TC 55 985 -12.9725 94.7101 1 -11.7000 95.0000 TC 55 985 8 262
1973354S10098 1974 139 SI WA DALIDA:DEIDRE:DELID 1973-12-22 15:00:00 TS -12.3727 94.4473 50 985 bom main 1281 1281 P_____O__PP_P_ SH111974 -13.0575 94.3576 -1 -11.6000 94.6000 30 50 985 3.50000 -11.7124 94.5024 TC 52 985 -13.0965 94.3638 1 -11.7124 94.5024 TC 55 985 9 258
1973354S10098 1974 139 SI WA DALIDA:DEIDRE:DELID 1973-12-22 18:00:00 TS -12.5000 93.9500 50 986 bom main 1319 1319 O_____O__OO_O_ jtwc_sh SH111974 -13.2000 94.0000 -1 -11.8000 93.9000 30 50 986 3.50000 -11.8000 93.9000 TC 50 986 -13.2000 94.0000 1 -11.8000 93.9000 TC 55 986 10 256
1973354S10098 1974 139 SI WA DALIDA:DEIDRE:DELID 1973-12-22 21:00:00 TS -12.6272 93.4300 50 985 bom main 1363 1363 P_____O__PP_P_ SH111974 -13.2769 93.5378 -1 -12.0000 93.2000 30 50 985 3.50000 -12.0485 92.9922 TC 52 985 -13.2629 93.6796 1 -12.0485 92.9922 TC 55 985 10 256
1973354S10098 1974 139 SI WA DALIDA:DEIDRE:DELID 1973-12-23 00:00:00 TS -12.7509 92.9071 main 1408 1408 O_____P__OP_O_ jtwc_sh SH111974 -13.3000 93.3000 -1 -12.1989 92.5034 30 50 985 -12.2000 92.5000 TC 55 985 -13.3066 93.3394 1 -12.2000 92.5000 TC 55 985 11 256
1973354S10098 1974 139 SI WA DALIDA:DEIDRE:DELID 1973-12-23 00:01:00 TS -12.7515 92.9045 50 985 bom main 1408 1408 O_____O__OP_O_ jtwc_sh SH111974 -13.3000 93.3000 -1 -12.2000 92.5000 30 50 985 3.50000 -12.2000 92.5000 TC 55 985 -13.3068 93.3374 1 -12.2000 92.5000 TC 55 985 9 256
1973354S10098 1974 139 SI WA DALIDA:DEIDRE:DELID 1973-12-23 03:00:00 TS -12.8577 92.4615 50 984 bom main 1439 1439 P_____O__PP_P_ SH111974 -13.3285 93.0507 -1 -12.4000 92.0000 30 50 984 3.50000 -12.3017 92.1619 TC 55 985 -13.3470 92.9545 1 -12.3017 92.1619 TC 55 985 9 257
1973354S10098 1974 139 SI WA DALIDA:DEIDRE:DELID 1973-12-23 06:00:00 TS -12.9500 92.0000 50 985 bom main 1467 1476 O_____O__OO_O_ jtwc_sh SH111974 -13.4000 92.5000 -1 -12.5000 91.5000 30 50 985 3.50000 -12.5000 91.5000 TC 55 985 -13.4000 92.5000 2 -12.5000 91.5000 TC 55 985 10 257
1973354S10098 1974 139 SI WA DALIDA:DEIDRE:DELID 1973-12-23 09:00:00 TS -13.0791 91.4710 55 981 bom main 1515 1515 P_____O__PP_P_ SH111974 -13.4925 91.9374 -1 -12.7000 91.0000 30 55 981 4.00000 -12.6500 90.9997 TC 57 983 -13.4899 91.9510 2 -12.6500 90.9997 TC 57 983 11 257
1973354S10098 1974 139 SI WA DALIDA:DEIDRE:DELID 1973-12-23 12:00:00 TS -13.1988 90.9054 55 981 bom main 1560 1560 O_____O__OP_O_ jtwc_sh SH111974 -13.6000 91.3000 -1 -12.8000 90.5000 30 55 981 4.00000 -12.8000 90.5000 TC 60 981 -13.5927 91.3326 2 -12.8000 90.5000 TC 60 981 11 257
1973354S10098 1974 139 SI WA DALIDA:DEIDRE:DELID 1973-12-23 15:00:00 TS -13.3356 90.3338 55 981 bom main 1608 1608 P_____O__PP_P_ SH111974 -13.7074 90.6575 -1 -13.0000 90.0000 30 55 981 4.00000 -12.9499 90.0074 TC 60 981 -13.6991 90.6729 2 -12.9499 90.0074 TC 60 981 12 257
1973354S10098 1974 139 SI MM DALIDA:DEIDRE:DELID 1973-12-23 18:00:00 TS -13.4500 89.7500 55 981 bom main 1649 1658 O_____O__OO_O_ jtwc_sh SH111974 -13.8000 90.0000 -1 -13.1000 89.5000 30 55 981 4.00000 -13.1000 89.5000 TC 60 981 -13.8000 90.0000 2 -13.1000 89.5000 TC 60 981 12 259
1973354S10098 1974 139 SI MM DALIDA:DEIDRE:DELID 1973-12-23 21:00:00 TS -13.5635 89.1621 55 981 bom main 1708 1708 P_____O__PP_P_ SH111974 -13.8718 89.1418 -1 -13.3000 89.0000 30 55 981 4.00000 -13.2984 88.7793 TC 60 981 -13.8815 89.3731 2 -13.2984 88.7793 TC 60 981 12 260
1973354S10098 1974 139 SI MM DALIDA:DEIDRE:DELID 1973-12-24 00:00:00 TS -13.6593 88.5567 main 1758 1758 O_____P__OP_O_ jtwc_sh SH111974 -13.9000 88.7000 -1 -13.3993 88.4031 30 55 981 -13.4000 88.4000 TC 60 981 -13.9564 88.7371 2 -13.4000 88.4000 TC 60 981 12 261
1973354S10098 1974 139 SI MM DALIDA:DEIDRE:DELID 1973-12-24 00:01:00 TS -13.6599 88.5535 55 981 bom main 1758 1765 O_____O__OP_O_ jtwc_sh SH111974 -13.9000 88.7000 -1 -13.4000 88.4000 30 55 981 4.00000 -13.4000 88.4000 TC 60 981 -13.9568 88.7335 2 -13.4000 88.4000 TC 60 981 11 257
1973354S10098 1974 139 SI MM DALIDA:DEIDRE:DELID 1973-12-24 03:00:00 TS -13.7879 87.9879 55 980 bom main 1810 1810 P_____O__PP_P_ SH111974 -13.9733 88.2711 -1 -13.6000 87.9000 30 55 980 4.00000 -13.5016 88.0725 TC 60 979 -14.0282 88.0825 2 -13.5016 88.0725 TC 62 979 11 259
1973354S10098 1974 139 SI MM DALIDA:DEIDRE:DELID 1973-12-24 06:00:00 TS -13.8680 87.4240 60 978 bom main 1862 1862 O____OO__OO_O_ jtwc_sh SH111974 -14.1000 87.4000 -1 -13.1000 88.0000 3 9.90000 -13.7000 87.4000 30 60 978 4.00000 -13.7000 87.4000 TC 60 978 -14.1000 87.4000 2 -13.7000 87.4000 TC 65 978 12 262
1973354S10098 1974 139 SI MM DALIDA:DEIDRE:DELID 1973-12-24 09:00:00 TS -13.9553 86.7919 60 976 bom main 1915 1915 P____PO__PP_P_ SH111974 -14.1500 86.6646 -1 -13.3077 87.4102 3 -13.9000 86.8000 30 60 976 4.00000 -13.8425 86.8147 TC 62 976 -14.1706 86.6826 2 -13.8425 86.8147 TC 67 976 13 262
1973354S10098 1974 139 SI MM DALIDA:DEIDRE:DELID 1973-12-24 12:00:00 TS -14.0395 86.1388 65 975 bom main 1970 1970 O____OO__OP_O_ jtwc_sh SH111974 -14.2000 85.9000 -1 -13.5000 86.8000 99 9.90000 -14.0000 86.2000 40 65 975 4.50000 -14.0000 86.2000 TC 65 975 -14.2420 85.9371 2 -14.0000 86.2000 TC 70 975 13 261
1973354S10098 1974 139 SI MM DALIDA:DEIDRE:DELID 1973-12-24 15:00:00 TS -14.1645 85.4922 65 974 bom main 2032 2032 P____PO__PP_P_ SH111974 -14.2922 85.1575 -1 -13.6649 86.1574 99 -14.2000 85.6000 40 65 974 4.50000 -14.1924 85.6000 TC 67 974 -14.3173 85.1731 2 -14.1924 85.6000 TC 70 974 13 258
1973354S10098 1974 139 SI MM DALIDA:DEIDRE:DELID 1973-12-24 18:00:00 TS -14.3143 84.8143 70 973 bom main 2096 2096 O____OO__OO_O_ jtwc_sh SH111974 -14.4000 84.4000 -1 -13.8000 85.5000 99 9.90000 -14.4000 85.0000 40 70 973 4.50000 -14.4000 85.0000 TC 70 973 -14.4000 84.4000 2 -14.4000 85.0000 TC 70 973 14 257
1973354S10098 1974 139 SI MM DALIDA:DEIDRE:DELID 1973-12-24 21:00:00 TS -14.4616 84.1151 70 973 bom main 2168 2168 P____PO__PP_P_ SH111974 -14.5327 83.3492 -1 -13.9378 84.6418 99 -14.6000 84.4000 40 70 973 4.50000 -14.6644 84.2080 TC 70 973 -14.5016 83.5637 2 -14.6644 84.2080 TC 70 973 14 258
1973354S10098 1974 139 SI MM DALIDA:DEIDRE:DELID 1973-12-25 00:00:00 TS -14.6011 83.4191 main 2233 2233 O____OP__OP_O_ jtwc_sh SH111974 -14.6000 82.8000 -1 -14.0000 84.2000 99 9.90000 -14.7991 83.8033 40 70 973 -14.8000 83.8000 TC 70 973 -14.6087 82.7307 2 -14.8000 83.8000 TC 70 973 14 258
1973354S10098 1974 139 SI MM DALIDA:DEIDRE:DELID 1973-12-25 00:01:00 TS -14.6018 83.4153 70 973 bom main 2233 2233 O____OO__OP_O_ jtwc_sh SH111974 -14.6000 82.8000 -1 -14.0000 84.2000 99 9.90000 -14.8000 83.8000 40 70 973 4.50000 -14.8000 83.8000 TC 70 973 -14.6092 82.7262 2 -14.8000 83.8000 TC 70 973 14 261
1973354S10098 1974 139 SI MM DALIDA:DEIDRE:DELID 1973-12-25 03:00:00 TS -14.7119 82.7306 70 972 bom main 2300 2300 P____PO__PP_P_ SH111974 -14.6738 82.2609 -1 -14.0343 83.7835 99 -14.9000 83.2000 40 70 972 4.50000 -14.8966 83.3889 TC 70 971 -14.7112 81.9573 2 -14.8966 83.3889 TC 72 971 13 260
1973354S10098 1974 139 SI MM DALIDA:DEIDRE:DELID 1973-12-25 06:00:00 TS -14.8286 82.1000 70 970 bom main 2324 2324 O____OO__OO_O_ jtwc_sh SH111974 -14.8000 81.3000 -1 -14.1000 83.0000 3 9.90000 -15.1000 82.6000 40 70 970 4.50000 -15.1000 82.6000 TC 70 970 -14.8000 81.3000 4 -15.1000 82.6000 TC 75 970 12 258
1973354S10098 1974 139 SI MM DALIDA:DEIDRE:DELID 1973-12-25 09:00:00 TS -14.9511 81.5622 75 967 bom main 2344 2342 P____PO__PP_P_ SH111974 -14.8573 80.7746 -1 -14.1572 82.4997 3 -15.3000 82.0000 40 75 967 4.50000 -15.3074 82.0348 TC 72 968 -14.8710 80.8155 4 -15.3074 82.0348 TC 77 968 10 256
1973354S10098 1974 139 SI MM DALIDA:DEIDRE:DELID 1973-12-25 12:00:00 TS -15.0612 81.1071 75 967 bom main 2353 2352 O____OO__OP_O_ jtwc_sh SH111974 -14.9000 80.4000 -1 -14.2000 82.0000 99 9.90000 -15.5000 81.5000 40 75 967 4.50000 -15.5000 81.5000 TC 75 967 -14.9283 80.4499 4 -15.5000 81.5000 TC 80 967 9 257
1973354S10098 1974 139 SI MM DALIDA:DEIDRE:DELID 1973-12-25 15:00:00 TS -15.1511 80.6911 80 966 bom main 2363 2363 P____PO__PP_P_ SH111974 -14.9573 80.1200 -1 -14.2073 81.4374 99 -15.6000 81.0000 40 80 966 5.00000 -15.6223 80.9924 TC 75 966 -14.9715 80.1593 4 -15.7422 81.0083 TC 80 966 8 261
1973354S10098 1974 139 SI MM DALIDA:DEIDRE:DELID 1973-12-25 18:00:00 TS -15.1857 80.2857 80 966 bom main 2364 2353 O____OO__OO_O_ jtwc_sh SH111974 -15.0000 79.9000 -1 -14.2000 80.8000 99 9.90000 -15.7000 80.5000 40 80 966 5.00000 -15.7000 80.5000 TC 75 966 -15.0000 79.9000 4 -15.7000 80.5000 TC 80 966 8 277
1973354S10098 1974 139 SI MM DALIDA:DEIDRE:DELID 1973-12-25 21:00:00 TS -15.0536 79.8257 80 965 bom main 2354 2338 P____PO__PP_P_ SH111974 -15.0054 79.5699 -1 -14.2007 79.8258 99 -15.8000 80.0000 40 80 965 5.00000 -15.7717 79.8398 TC 77 965 -15.0017 79.6316 4 -14.8014 79.7166 TC 80 9 290
1973354S10098 1974 139 SI MM DALIDA:DEIDRE:DELID 1973-12-26 00:00:00 TS -14.8653 79.3802 reunion main 2333 2333 O____OP__OP_O_ jtwc_sh SH111974 -15.0000 79.4000 -1 -14.2000 79.3000 99 9.90000 -15.8002 79.5028 40 80 964 -15.8000 79.5000 TC 80 964 -14.9917 79.3796 4 -14.2000 79.3000 TC 80 10 302
1973354S10098 1974 139 SI MM DALIDA:DEIDRE:DELID 1973-12-26 00:01:00 TS -14.7799 79.3670 main 2322 2025 O____OO__OP_O_ jtwc_sh SH111974 -15.0000 79.4000 -1 -14.2000 79.3000 99 9.90000 -15.8000 79.5000 40 80 964 5.00000 -15.8000 79.5000 TC 80 964 -14.9917 79.3782 4 -14.2000 79.3000 TC 80 9 302
1973354S10098 1974 139 SI MM DALIDA:DEIDRE:DELID 1973-12-26 03:00:00 TS -14.6365 78.9981 main 2303 2301 P____P____P_P_ SH111974 -14.9947 79.2130 -1 -14.1736 78.9901 99 40 -14.9860 79.1128 4 -14.1736 78.9901 TC 80 7 278
1973354S10098 1974 139 SI MM DALIDA:DEIDRE:DELID 1973-12-26 06:00:00 TS -14.6800 78.6400 reunion main 2291 2246 O____O____O_O_ jtwc_sh SH111974 -15.0000 78.8000 -1 -14.2000 78.4000 4 9.90000 -15.0000 78.8000 4 -14.2000 78.4000 TC 80 8 258
1973354S10098 1974 139 SI MM DALIDA:DEIDRE:DELID 1973-12-26 09:00:00 TS -14.8003 78.2216 main 2246 2202 P____P____P_P_ SH111974 -15.0350 78.3724 -1 -14.4349 77.9850 4 -15.0618 78.3925 4 -14.4349 77.9850 TC 80 9 252
1973354S10098 1974 139 SI MM DALIDA:DEIDRE:DELID 1973-12-26 12:00:00 TS -14.9486 77.7876 reunion main 2202 2154 O____O____P_O_ jtwc_sh SH111974 -15.1000 77.9000 -1 -14.7000 77.6000 99 9.90000 -15.1429 77.9379 4 -14.7000 77.6000 TC 80 9 252
1973354S10098 1974 139 SI MM DALIDA:DEIDRE:DELID 1973-12-26 15:00:00 TS -15.0604 77.3728 main 2154 2114 P____P____P_P_ SH111974 -15.2075 77.4426 -1 -14.8298 77.2574 99 -15.2274 77.4643 4 -14.8298 77.2574 TC 82 8 257
1973354S10098 1974 139 SI MM DALIDA:DEIDRE:DELID 1973-12-26 18:00:00 TS -15.1400 76.9600 reunion main 2114 2069 O____O____O_O_ jtwc_sh SH111974 -15.3000 77.0000 -1 -14.9000 76.9000 99 9.90000 -15.3000 77.0000 4 -14.9000 76.9000 TC 85 8 262
1973354S10098 1974 139 SI MM DALIDA:DEIDRE:DELID 1973-12-26 21:00:00 TS -15.1689 76.5288 main 2059 2019 P____P____P_P_ SH111974 -15.3074 76.5924 -1 -14.9576 76.4350 99 -15.3146 76.5892 4 -14.9576 76.4350 TC 85 8 267
1973354S10098 1974 139 SI MM DALIDA:DEIDRE:DELID 1973-12-27 00:00:00 TS -15.1839 76.1183 reunion main 2019 1988 O____O____P_O_ jtwc_sh SH111974 -15.3000 76.2000 -1 -15.0000 76.0000 99 9.90000 -15.3195 76.1917 4 -15.0000 76.0000 TC 85 7 267
1973354S10098 1974 139 SI MM DALIDA:DEIDRE:DELID 1973-12-27 03:00:00 TS -15.2097 75.7916 main 1988 1954 P____P____P_P_ SH111974 -15.3274 75.7999 -1 -15.0270 75.7797 99 -15.3396 75.7985 4 -15.0270 75.7797 TC 87 7 262
1973354S10098 1974 139 SI MM DALIDA:DEIDRE:DELID 1973-12-27 06:00:00 TS -15.2800 75.4400 reunion main 1944 1900 O____O____O_O_ jtwc_sh SH111974 -15.4000 75.4000 -1 -15.1000 75.5000 4 9.90000 -15.4000 75.4000 4 -15.1000 75.5000 TC 90 8 255
1973354S10098 1974 139 SI MM DALIDA:DEIDRE:DELID 1973-12-27 09:00:00 TS -15.4230 74.9588 main 1900 1842 P____P____P_P_ SH111974 -15.5274 75.0075 -1 -15.2703 74.9026 4 -15.5196 74.9742 4 -15.2703 74.9026 TC 90 10 251
1973354S10098 1974 139 SI MM DALIDA:DEIDRE:DELID 1973-12-27 12:00:00 TS -15.6165 74.4285 reunion main 1832 1774 O____O____P_O_ jtwc_sh SH111974 -15.7000 74.6000 -1 -15.5000 74.2000 99 9.90000 -15.6824 74.5426 4 -15.5000 74.2000 TC 90 11 248
1973354S10098 1974 139 SI MM DALIDA:DEIDRE:DELID 1973-12-27 15:00:00 TS -15.8267 73.9199 main 1774 1716 P____P____P_P_ SH111974 -15.8850 74.1499 -1 -15.7423 73.5924 99 -15.8790 74.1147 4 -15.7423 73.5924 TC 87 11 245
1973354S10098 1974 139 SI MM DALIDA:DEIDRE:DELID 1973-12-27 18:00:00 TS -16.0600 73.4200 reunion main 1712 1665 O____O____O_O_ jtwc_sh SH111974 -16.1000 73.7000 -1 -16.0000 73.0000 99 9.90000 -16.1000 73.7000 4 -16.0000 73.0000 TC 85 11 244
1973354S10098 1974 139 SI MM DALIDA:DEIDRE:DELID 1973-12-27 21:00:00 TS -16.3002 72.9268 main 1655 1607 P____P____P_P_ SH111974 -16.3424 73.2850 -1 -16.2499 72.3849 99 -16.3161 73.2942 4 -16.2499 72.3849 TC 85 10 242
1973354S10098 1974 139 SI MM DALIDA:DEIDRE:DELID 1973-12-28 00:00:00 TS -16.5510 72.4610 reunion main 1604 1556 O____O____P_O_ jtwc_sh SH111974 -16.6000 72.9000 -1 -16.5000 71.8000 99 9.90000 -16.5549 72.9048 4 -16.5000 71.8000 TC 85 10 241
1973354S10098 1974 139 SI MM DALIDA:DEIDRE:DELID 1973-12-28 03:00:00 TS -16.7852 72.0294 main 1546 1509 P____P____P_P_ SH111974 -16.8424 72.5349 -1 -16.7124 71.2696 99 -16.8162 72.5380 4 -16.7124 71.2696 TC 85 9 237
1973354S10098 1974 139 SI MM DALIDA:DEIDRE:DELID 1973-12-28 06:00:00 TS -17.0600 71.6400 reunion main 1496 1456 O____O____O_O_ jtwc_sh SH111974 -17.1000 72.2000 -1 -17.0000 70.8000 4 9.90000 -17.1000 72.2000 4 -17.0000 70.8000 TC 85 10 229
1973354S10098 1974 139 SI MM DALIDA:DEIDRE:DELID 1973-12-28 09:00:00 TS -17.4150 71.2795 main 1456 1414 P____P____P_P_ SH111974 -17.3850 71.8849 -1 -17.4549 70.3700 4 -17.3951 71.8878 4 -17.4549 70.3700 TC 85 10 220
1973354S10098 1974 139 SI MM DALIDA:DEIDRE:DELID 1973-12-28 12:00:00 TS -17.8224 70.9609 reunion main 1414 1374 O____O____P_O_ jtwc_sh SH111974 -17.7000 71.6000 -1 -18.0000 70.0000 99 9.90000 -17.7122 71.6046 4 -18.0000 70.0000 TC 85 10 215
1973354S10098 1974 139 SI MM DALIDA:DEIDRE:DELID 1973-12-28 15:00:00 TS -18.2466 70.6708 main 1374 1332 P____P____P_P_ SH111974 -18.0499 71.3424 -1 -18.5425 69.6624 99 -18.0482 71.3441 4 -18.5425 69.6624 TC 82 10 211
1973354S10098 1974 139 SI MM DALIDA:DEIDRE:DELID 1973-12-28 18:00:00 TS -18.6800 70.4200 reunion main 1332 1306 O____O____O_O_ jtwc_sh SH111974 -18.4000 71.1000 -1 -19.1000 69.4000 99 9.90000 -18.4000 71.1000 4 -19.1000 69.4000 TC 80 9 209
1973354S10098 1974 139 SI MM DALIDA:DEIDRE:DELID 1973-12-28 21:00:00 TS -19.0687 70.1922 main 1304 1278 P____P____P_P_ SH111974 -18.6850 70.8423 -1 -19.6349 69.2123 99 -18.7037 70.8518 4 -19.6349 69.2123 TC 77 9 206
1973354S10098 1974 139 SI MM DALIDA:DEIDRE:DELID 1973-12-29 00:00:00 TS -19.4860 70.0038 reunion main 1278 1263 O____O____P_O_ jtwc_sh SH111974 -19.0000 70.6000 -1 -20.2000 69.1000 99 9.90000 -19.0300 70.6189 4 -20.2000 69.1000 TC 75 10 199
1973354S10098 1974 139 SI MM DALIDA:DEIDRE:DELID 1973-12-29 03:00:00 TS -19.9702 69.8541 main 1263 1240 P____P____P_P_ SH111974 -19.3900 70.3923 -1 -20.8275 69.0422 99 -19.4163 70.4017 4 -20.8275 69.0422 TC 72 11 194
1973354S10098 1974 139 SI MM DALIDA:DEIDRE:DELID 1973-12-29 06:00:00 TS -20.5400 69.7200 reunion main 1240 1229 O____O____O_O_ jtwc_sh SH111974 -19.9000 70.2000 -1 -21.5000 69.0000 4 9.90000 -19.9000 70.2000 2 -21.5000 69.0000 TC 70 13 193
1973354S10098 1974 139 SI MM DALIDA:DEIDRE:DELID 1973-12-29 09:00:00 TS -21.2129 69.5568 main 1230 1213 P____P____P_P_ SH111974 -20.5550 69.9925 -1 -22.2150 68.9002 4 -20.5244 69.9987 2 -22.2150 68.9002 TC 70 14 192
1973354S10098 1974 139 SI MM DALIDA:DEIDRE:DELID 1973-12-29 12:00:00 TS -21.9290 69.4026 reunion main 1216 1209 O____O____P_O_ jtwc_sh SH111974 -21.3000 69.8000 -1 -22.9000 68.8000 99 9.90000 -21.2452 69.8129 2 -22.9000 68.8000 TC 70 14 190
1973354S10098 1974 139 SI MM DALIDA:DEIDRE:DELID 1973-12-29 15:00:00 TS -22.6006 69.2888 main 1216 1213 P____P____P_P_ SH111974 -22.0500 69.6423 -1 -23.4425 68.7570 99 -22.0183 69.6456 2 -23.4425 68.7570 TC 67 14 189
1973354S10098 1974 139 SI MM DALIDA:DEIDRE:DELID 1973-12-29 18:00:00 TS -23.2800 69.1800 reunion main 1223 1215 O____O____O_O_ jtwc_sh SH111974 -22.8000 69.5000 -1 -24.0000 68.7000 99 9.90000 -22.8000 69.5000 2 -24.0000 68.7000 TC 65 14 190
1973354S10098 1974 139 SI MM DALIDA:DEIDRE:DELID 1973-12-29 21:00:00 TS -23.9930 69.0163 main 1224 1224 P____P____P_P_ SH111974 -23.5000 69.3351 -1 -24.7201 68.5578 99 -23.5246 69.2959 2 -24.7201 68.5578 TC 65 15 191
1973354S10098 1974 139 SI MM DALIDA:DEIDRE:DELID 1973-12-30 00:00:00 TS -24.7299 68.8649 reunion main 1240 1235 O____O____P_O_ jtwc_sh SH111974 -24.2000 69.2000 -1 -25.5000 68.4000 99 9.90000 -24.2493 69.1247 2 -25.5000 68.4000 TC 65 15 190
1973354S10098 1974 139 SI MM DALIDA:DEIDRE:DELID 1973-12-30 03:00:00 TS -25.4897 68.7288 main 1255 1255 P____P____P_P_ SH111974 -24.9499 69.0905 -1 -26.2873 68.2111 99 -24.9743 69.0408 2 -26.2873 68.2111 TC 62 15 184
1973354S10098 1974 139 SI MM DALIDA:DEIDRE:DELID 1973-12-30 06:00:00 TS -26.2200 68.7400 reunion main 1289 1289 O____O____O_O_ jtwc_sh SH111974 -25.7000 69.1000 -1 -27.0000 68.2000 3 9.90000 -25.7000 69.1000 2 -27.0000 68.2000 TC 60 14 171
1973354S10098 1974 139 SI MM DALIDA:DEIDRE:DELID 1973-12-30 09:00:00 TS -26.8857 68.9709 main 1353 1353 P____P____P_P_ SH111974 -26.3997 69.2531 -1 -27.5523 68.5296 3 -26.5247 69.2889 2 -27.5523 68.5296 TC 60 14 155
1973354S10098 1974 139 SI MM DALIDA:DEIDRE:DELID 1973-12-30 12:00:00 TS -27.5069 69.4073 reunion main 1421 1421 O____O____P_O_ jtwc_sh SH111974 -27.1000 69.6000 -1 -28.0000 69.1000 99 9.90000 -27.3344 69.6367 2 -28.0000 69.1000 TC 60 15 145
1973354S10098 1974 139 SI MM DALIDA:DEIDRE:DELID 1973-12-30 15:00:00 TS -28.1522 69.9679 main 1512 1512 P____P____P_P_ SH111974 -27.9019 70.0944 -1 -28.4525 69.7546 99 -28.0520 70.1417 2 -28.4525 69.7546 TC 60 16 136
1973354S10098 1974 139 SI MM DALIDA:DEIDRE:DELID 1973-12-30 18:00:00 TS -28.6800 70.6800 reunion main 1599 1599 O____O____O_O_ jtwc_sh SH111974 -28.6000 70.8000 -1 -28.8000 70.5000 99 9.90000 -28.6000 70.8000 2 -28.8000 70.5000 TC 60 16 122
1973354S10098 1974 139 SI MM DALIDA:DEIDRE:DELID 1973-12-30 21:00:00 TS -29.0159 71.5205 main 1683 1683 P____P____P_P_ SH111974 -29.0854 71.7042 -1 -28.9644 71.2291 99 -28.9233 71.6002 2 -28.9644 71.2291 TC 57 16 108
1973354S10098 1974 139 SI MM DALIDA:DEIDRE:DELID 1973-12-31 00:00:00 TS -29.1940 72.4373 reunion main 1769 1769 O____O____P_O_ jtwc_sh SH111974 -29.3000 72.7000 -1 -29.1000 72.0000 99 9.90000 -29.0580 72.5089 2 -29.1000 72.0000 TC 55 17 101
1973354S10098 1974 139 SI MM DALIDA:DEIDRE:DELID 1973-12-31 03:00:00 TS -29.3275 73.4177 main 1860 1860 P____P____P_P_ SH111974 -29.2708 73.7218 -1 -29.4612 72.9380 99 -29.0634 73.4878 2 -29.4612 72.9380 TC 52 15 95
1973354S10098 1974 139 SI MM DALIDA:DEIDRE:DELID 1973-12-31 06:00:00 TS -29.3294 74.1235 reunion main 1920 1920 O____O____O_O_ jtwc_sh SH111974 -29.0000 74.5000 -1 -29.7000 73.7000 3 9.90000 -29.0000 74.5000 1 -29.7000 73.7000 TC 50 8 76
1973354S10098 1974 139 SI MM DALIDA:DEIDRE:DELID 1973-12-31 09:00:00 TS -29.1280 74.3202 main 1927 1908 P____P______P_ SH111974 -28.5843 74.7962 -1 -29.5090 73.9482 3 1 -29.5090 73.9482 TC 50 4 12
1973354S10098 1974 139 SI MM DALIDA:DEIDRE:DELID 1973-12-31 12:00:00 TS -28.9059 74.2239 reunion main 1908 1908 O____O______O_ jtwc_sh SH111974 -28.1000 74.8000 -1 -29.2000 74.0000 99 9.90000 1 -29.2000 74.0000 TC 50 1 293
1973354S10098 1974 139 SI MM DALIDA:DEIDRE:DELID 1973-12-31 15:00:00 TS -29.0775 74.1849 main 1918 1918 _____P______P_ SH111974 -1 -29.0775 74.1849 99 1 -29.0775 74.1849 TC 47 2 121
1973354S10098 1974 139 SI MM DALIDA:DEIDRE:DELID 1973-12-31 18:00:00 TS -29.0000 74.4000 reunion main 1931 1931 _____O______O_ -1 -29.0000 74.4000 99 9.90000 -29.0000 74.4000 TC 45 5 69
1973354S10098 1974 139 SI MM DALIDA:DEIDRE:DELID 1973-12-31 21:00:00 TS -28.9151 74.6725 main 1952 1952 _____P______P_ -1 -28.9151 74.6725 99 -28.9151 74.6725 TC 42 5 65
1973354S10098 1974 139 SI MM DALIDA:DEIDRE:DELID 1974-01-01 00:00:00 TS -28.8000 74.9000 reunion main 1965 1965 _____O______O_ -1 -28.8000 74.9000 99 9.90000 -28.8000 74.9000 TC 40 4 47
1973354S10098 1974 139 SI MM DALIDA:DEIDRE:DELID 1974-01-01 03:00:00 TS -28.6524 74.9950 main 1970 1957 _____P______P_ -1 -28.6524 74.9950 99 -28.6524 74.9950 TC 40 4 12
1973354S10098 1974 139 SI MM DALIDA:DEIDRE:DELID 1974-01-01 06:00:00 TS -28.4000 75.0000 reunion main 1957 1940 _____O______O_ -1 -28.4000 75.0000 3 9.90000 -28.4000 75.0000 TC 40 7 0
1973354S10098 1974 139 SI MM DALIDA:DEIDRE:DELID 1974-01-01 09:00:00 TS -27.9647 75.0254 main 1940 1910 _____P______P_ -1 -27.9647 75.0254 3 -27.9647 75.0254 TC 40 9 355
1973354S10098 1974 139 SI MM DALIDA:DEIDRE:DELID 1974-01-01 12:00:00 TS -27.5000 74.9000 reunion main 1910 1862 _____O______O_ -1 -27.5000 74.9000 99 9.90000 -27.5000 74.9000 TC 40 9 330
1973354S10098 1974 139 SI MM DALIDA:DEIDRE:DELID 1974-01-01 15:00:00 TS -27.1702 74.5173 main 1862 1804 _____P______P_ -1 -27.1702 74.5173 99 -27.1702 74.5173 TC 40 10 307
1973354S10098 1974 139 SI MM DALIDA:DEIDRE:DELID 1974-01-01 18:00:00 TS -26.9000 74.0000 reunion main 1804 1746 _____O______O_ -1 -26.9000 74.0000 99 9.90000 -26.9000 74.0000 TC 40 11 302
1973354S10098 1974 139 SI MM DALIDA:DEIDRE:DELID 1974-01-01 21:00:00 TS -26.6124 73.5074 main 1746 1691 _____P______P_ -1 -26.6124 73.5074 99 -26.6124 73.5074 TC 40 10 299
1973354S10098 1974 139 SI MM DALIDA:DEIDRE:DELID 1974-01-02 00:00:00 ET -26.4000 73.0000 reunion main 1691 1641 _____O______O_ -1 -26.4000 73.0000 99 9.90000 -26.4000 73.0000 EX 40 10 289
1973354S10098 1974 139 SI MM DALIDA:DEIDRE:DELID 1974-01-02 03:00:00 ET -26.3048 72.5002 main 1641 1594 _____P______P_ -1 -26.3048 72.5002 99 -26.3048 72.5002 EX 40 9 276
1973354S10098 1974 139 SI MM DALIDA:DEIDRE:DELID 1974-01-02 06:00:00 ET -26.3000 72.0000 reunion main 1594 1548 _____O______O_ -1 -26.3000 72.0000 99 9.90000 -26.3000 72.0000 EX 40 9 269
1973354S10098 1974 139 SI MM DALIDA:DEIDRE:DELID 1974-01-02 09:00:00 ET -26.3197 71.5074 main 1548 1506 _____P______P_ -1 -26.3197 71.5074 99 -26.3197 71.5074 EX 40 9 264
1973354S10098 1974 139 SI MM DALIDA:DEIDRE:DELID 1974-01-02 12:00:00 ET -26.4000 71.0000 reunion main 1506 1465 _____O______O_ -1 -26.4000 71.0000 99 9.90000 -26.4000 71.0000 EX 40 9 256
1973354S10098 1974 139 SI MM DALIDA:DEIDRE:DELID 1974-01-02 15:00:00 ET -26.5496 70.4802 main 1465 1421 _____P______P_ -1 -26.5496 70.4802 99 -26.5496 70.4802 EX 40 10 253
1973354S10098 1974 139 SI MM DALIDA:DEIDRE:DELID 1974-01-02 18:00:00 ET -26.7000 69.9000 reunion main 1421 1359 _____O______O_ -1 -26.7000 69.9000 99 9.90000 -26.7000 69.9000 EX 40 12 260
1973354S10098 1974 139 SI MM DALIDA:DEIDRE:DELID 1974-01-02 21:00:00 ET -26.7504 69.1846 main 1365 1304 _____P______P_ -1 -26.7504 69.1846 99 -26.7504 69.1846 EX 40 13 265
1973354S10098 1974 139 SI MM DALIDA:DEIDRE:DELID 1974-01-03 00:00:00 ET -26.8000 68.5000 reunion main 1304 1268 _____O______O_ -1 -26.8000 68.5000 99 9.90000 -26.8000 68.5000 EX 40 11 259
1973354S10098 1974 139 SI MM DALIDA:DEIDRE:DELID 1974-01-03 03:00:00 ET -26.9496 67.9902 main 1268 1247 _____P______P_ -1 -26.9496 67.9902 99 -26.9496 67.9902 EX 40 9 249
1973354S10098 1974 139 SI MM DALIDA:DEIDRE:DELID 1974-01-03 06:00:00 ET -27.1000 67.6000 reunion main 1247 1229 _____O______O_ -1 -27.1000 67.6000 99 9.90000 -27.1000 67.6000 EX 40 7 252
1973354S10098 1974 139 SI MM DALIDA:DEIDRE:DELID 1974-01-03 09:00:00 ET -27.1572 67.2922 main 1229 1205 _____P______P_ -1 -27.1572 67.2922 99 -27.1572 67.2922 EX 40 5 259
1973354S10098 1974 139 SI MM DALIDA:DEIDRE:DELID 1974-01-03 12:00:00 ET -27.2000 67.0000 reunion main 1205 1180 _____O______O_ -1 -27.2000 67.0000 99 9.90000 -27.2000 67.0000 EX 40 6 258
1973354S10098 1974 139 SI MM DALIDA:DEIDRE:DELID 1974-01-03 15:00:00 ET -27.2852 66.5925 main 1180 1156 _____P______P_ -1 -27.2852 66.5925 99 -27.2852 66.5925 EX 40 7 254
1973354S10098 1974 139 SI MM DALIDA:DEIDRE:DELID 1974-01-03 18:00:00 ET -27.4000 66.2000 reunion main 1156 1149 _____O______O_ -1 -27.4000 66.2000 99 9.90000 -27.4000 66.2000 EX 40 6 245
1973354S10098 1974 139 SI MM DALIDA:DEIDRE:DELID 1974-01-03 21:00:00 ET -27.5497 65.9424 main 1141 1141 _____P______P_ -1 -27.5497 65.9424 99 -27.5497 65.9424 EX 40 5 236
1973354S10098 1974 139 SI MM DALIDA:DEIDRE:DELID 1974-01-04 00:00:00 ET -27.7000 65.7000 reunion main 1142 1127 _____O______O_ -1 -27.7000 65.7000 99 9.90000 -27.7000 65.7000 EX 40 6 246
1973354S10098 1974 139 SI MM DALIDA:DEIDRE:DELID 1974-01-04 03:00:00 ET -27.7776 65.3572 main 1128 1107 _____P______P_ -1 -27.7776 65.3572 99 -27.7776 65.3572 EX 40 7 252
1973354S10098 1974 139 SI MM DALIDA:DEIDRE:DELID 1974-01-04 06:00:00 ET -27.9000 65.0000 reunion main 1109 1102 _____O______O_ -1 -27.9000 65.0000 5 9.90000 -27.9000 65.0000 EX 40 7 238
1973354S10098 1974 139 SI MM DALIDA:DEIDRE:DELID 1974-01-04 09:00:00 ET -28.1625 64.6628 main 1114 1107 _____P______P_ -1 -28.1625 64.6628 5 -28.1625 64.6628 EX 40 8 221
1973354S10098 1974 139 SI MM DALIDA:DEIDRE:DELID 1974-01-04 12:00:00 ET -28.5000 64.4000 reunion main 1121 1121 _____O______O_ -1 -28.5000 64.4000 99 9.90000 -28.5000 64.4000 EX 40 8 210
1973354S10098 1974 139 SI MM DALIDA:DEIDRE:DELID 1974-01-04 15:00:00 ET -28.8274 64.2326 main 1135 1135 _____P______P_ -1 -28.8274 64.2326 99 -28.8274 64.2326 EX 40 7 194
1973354S10098 1974 139 SI MM DALIDA:DEIDRE:DELID 1974-01-04 18:00:00 ET -29.2000 64.2000 reunion main 1171 1171 _____O______O_ -1 -29.2000 64.2000 99 9.90000 -29.2000 64.2000 EX 40 8 174
1973354S10098 1974 139 SI MM DALIDA:DEIDRE:DELID 1974-01-04 21:00:00 ET -29.6351 64.3195 main 1213 1213 _____P______P_ -1 -29.6351 64.3195 99 -29.6351 64.3195 EX 37 9 164
1973354S10098 1974 139 SI MM DALIDA:DEIDRE:DELID 1974-01-05 00:00:00 ET -30.1000 64.5000 reunion main 1270 1270 _____O______O_ -1 -30.1000 64.5000 99 9.90000 -30.1000 64.5000 EX 35 10 163
1973354S10098 1974 139 SI MM DALIDA:DEIDRE:DELID 1974-01-05 03:00:00 ET -30.6174 64.6747 main 1327 1327 _____P______P_ -1 -30.6174 64.6747 99 -30.6174 64.6747 EX 35 9 169
1973354S10098 1974 139 SI MM DALIDA:DEIDRE:DELID 1974-01-05 06:00:00 ET -31.0000 64.7000 reunion main 1365 1359 _____O______O_ -1 -31.0000 64.7000 5 9.90000 -31.0000 64.7000 EX 35 5 206
1973354S10098 1974 139 SI MM DALIDA:DEIDRE:DELID 1974-01-05 09:00:00 ET -31.0677 64.4174 main 1359 1330 _____P______P_ -1 -31.0677 64.4174 5 -31.0677 64.4174 EX 35 6 270
1973354S10098 1974 139 SI MM DALIDA:DEIDRE:DELID 1974-01-05 12:00:00 ET -31.0000 64.0000 reunion main 1330 1317 _____O______O_ -1 -31.0000 64.0000 99 9.90000 -31.0000 64.0000 EX 35 7 276
1973354S10098 1974 139 SI MM DALIDA:DEIDRE:DELID 1974-01-05 15:00:00 ET -31.0000 63.6350 main 1312 1299 _____P______P_ -1 -31.0000 63.6350 99 -31.0000 63.6350 EX 35 6 270
1973354S10098 1974 139 SI MM DALIDA:DEIDRE:DELID 1974-01-05 18:00:00 ET -31.0000 63.3000 reunion main 1299 1290 _____O______O_ -1 -31.0000 63.3000 99 9.90000 -31.0000 63.3000 EX 35 5 270
1973354S10098 1974 139 SI MM DALIDA:DEIDRE:DELID 1974-01-05 21:00:00 ET -30.9997 63.0575 main 1290 1278 _____P______P_ -1 -30.9997 63.0575 99 -30.9997 63.0575 EX 35 4 270
1973354S10098 1974 139 SI MM DALIDA:DEIDRE:DELID 1974-01-06 00:00:00 ET -31.0000 62.8000 reunion main 1278 1267 _____O______O_ -1 -31.0000 62.8000 99 9.90000 -31.0000 62.8000 EX 35 5 270
1973354S10098 1974 139 SI MM DALIDA:DEIDRE:DELID 1974-01-06 03:00:00 ET -31.0005 62.4350 main 1263 1246 _____P______P_ -1 -31.0005 62.4350 99 -31.0005 62.4350 EX 32 7 270
1973354S10098 1974 139 SI MM DALIDA:DEIDRE:DELID 1974-01-06 06:00:00 MX -31.0000 62.0000 reunion main 1246 _____O______O_ -1 -31.0000 62.0000 6 9.90000 -31.0000 62.0000 EX 30 7 270

About IBTrACS Database

This database is a web-friendly format of International Best Track Archive for Climate Stewardship (IBTrACS), a global best track data archive curated by NOAA dating back to 1842.

Updated: 2021-11-26